sensor_id;sensor_type;location;lat;lon;timestamp;pressure;altitude;pressure_sealevel;temperature;humidity
79413;BME280;68863;49.528;11.010;2024-03-08T00:00:05;98446.00;;;6.24;50.79
79413;BME280;68863;49.528;11.010;2024-03-08T00:01:14;98439.44;;;6.17;50.98
79413;BME280;68863;49.528;11.010;2024-03-08T00:02:16;98438.56;;;6.16;51.08
79413;BME280;68863;49.528;11.010;2024-03-08T00:03:17;98437.25;;;5.90;51.68
79413;BME280;68863;49.528;11.010;2024-03-08T00:04:17;98438.06;;;6.09;51.17
79413;BME280;68863;49.528;11.010;2024-03-08T00:05:17;98437.66;;;6.17;50.85
79413;BME280;68863;49.528;11.010;2024-03-08T00:06:18;98433.44;;;6.14;50.74
79413;BME280;68863;49.528;11.010;2024-03-08T00:07:18;98437.88;;;5.95;51.66
79413;BME280;68863;49.528;11.010;2024-03-08T00:08:19;98432.84;;;6.09;50.95
79413;BME280;68863;49.528;11.010;2024-03-08T00:09:19;98430.22;;;6.09;51.13
79413;BME280;68863;49.528;11.010;2024-03-08T00:10:21;98430.91;;;6.13;51.00
79413;BME280;68863;49.528;11.010;2024-03-08T00:11:22;98424.75;;;5.97;51.12
79413;BME280;68863;49.528;11.010;2024-03-08T00:12:23;98428.84;;;6.02;50.80
79413;BME280;68863;49.528;11.010;2024-03-08T00:13:23;98422.91;;;5.81;51.72
79413;BME280;68863;49.528;11.010;2024-03-08T00:14:25;98423.03;;;5.97;51.59
79413;BME280;68863;49.528;11.010;2024-03-08T00:15:25;98421.03;;;6.02;51.36
79413;BME280;68863;49.528;11.010;2024-03-08T00:16:26;98422.69;;;5.86;51.78
79413;BME280;68863;49.528;11.010;2024-03-08T00:17:27;98424.94;;;5.94;51.62
79413;BME280;68863;49.528;11.010;2024-03-08T00:18:28;98421.03;;;6.02;51.73
79413;BME280;68863;49.528;11.010;2024-03-08T00:19:29;98426.88;;;5.88;51.62
79413;BME280;68863;49.528;11.010;2024-03-08T00:20:29;98427.38;;;5.97;51.70
79413;BME280;68863;49.528;11.010;2024-03-08T00:21:29;98419.78;;;5.92;51.56
79413;BME280;68863;49.528;11.010;2024-03-08T00:22:30;98424.91;;;5.57;52.41
79413;BME280;68863;49.528;11.010;2024-03-08T00:23:30;98424.72;;;5.62;52.54
79413;BME280;68863;49.528;11.010;2024-03-08T00:24:32;98417.19;;;5.56;52.43
79413;BME280;68863;49.528;11.010;2024-03-08T00:25:32;98418.06;;;5.74;52.38
79413;BME280;68863;49.528;11.010;2024-03-08T00:26:32;98413.69;;;5.74;52.48
79413;BME280;68863;49.528;11.010;2024-03-08T00:27:33;98415.78;;;5.49;52.85
79413;BME280;68863;49.528;11.010;2024-03-08T00:28:33;98421.19;;;5.80;52.25
79413;BME280;68863;49.528;11.010;2024-03-08T00:29:37;98402.50;;;5.72;52.43
79413;BME280;68863;49.528;11.010;2024-03-08T00:30:40;98416.69;;;5.67;52.55
79413;BME280;68863;49.528;11.010;2024-03-08T00:31:41;98407.66;;;5.74;52.16
79413;BME280;68863;49.528;11.010;2024-03-08T00:32:41;98408.16;;;5.63;52.41
79413;BME280;68863;49.528;11.010;2024-03-08T00:33:42;98411.59;;;5.63;52.30
79413;BME280;68863;49.528;11.010;2024-03-08T00:34:42;98410.94;;;5.77;52.22
79413;BME280;68863;49.528;11.010;2024-03-08T00:35:43;98408.53;;;5.73;52.34
79413;BME280;68863;49.528;11.010;2024-03-08T00:36:43;98407.31;;;5.62;52.34
79413;BME280;68863;49.528;11.010;2024-03-08T00:37:44;98409.38;;;5.73;52.57
79413;BME280;68863;49.528;11.010;2024-03-08T00:38:47;98411.19;;;5.54;52.70
79413;BME280;68863;49.528;11.010;2024-03-08T00:39:51;98412.69;;;5.59;52.62
79413;BME280;68863;49.528;11.010;2024-03-08T00:40:52;98413.41;;;5.44;53.12
79413;BME280;68863;49.528;11.010;2024-03-08T00:41:52;98408.31;;;5.60;52.75
79413;BME280;68863;49.528;11.010;2024-03-08T00:42:52;98414.94;;;5.48;52.97
79413;BME280;68863;49.528;11.010;2024-03-08T00:43:53;98404.06;;;5.40;53.23
79413;BME280;68863;49.528;11.010;2024-03-08T00:44:53;98407.25;;;5.28;53.95
79413;BME280;68863;49.528;11.010;2024-03-08T00:45:54;98415.06;;;5.28;53.90
79413;BME280;68863;49.528;11.010;2024-03-08T00:46:54;98406.75;;;5.20;53.96
79413;BME280;68863;49.528;11.010;2024-03-08T00:47:55;98412.81;;;5.01;54.52
79413;BME280;68863;49.528;11.010;2024-03-08T00:48:55;98410.13;;;5.22;54.37
79413;BME280;68863;49.528;11.010;2024-03-08T00:49:56;98404.41;;;5.32;53.95
79413;BME280;68863;49.528;11.010;2024-03-08T00:50:57;98412.31;;;4.93;55.17
79413;BME280;68863;49.528;11.010;2024-03-08T00:51:57;98401.22;;;5.45;53.93
79413;BME280;68863;49.528;11.010;2024-03-08T00:52:58;98399.47;;;5.45;53.74
79413;BME280;68863;49.528;11.010;2024-03-08T00:53:58;98397.19;;;5.56;53.48
79413;BME280;68863;49.528;11.010;2024-03-08T00:54:58;98404.03;;;5.04;54.18
79413;BME280;68863;49.528;11.010;2024-03-08T00:55:58;98398.66;;;5.26;54.09
79413;BME280;68863;49.528;11.010;2024-03-08T00:56:59;98395.63;;;5.35;54.04
79413;BME280;68863;49.528;11.010;2024-03-08T00:58:03;98393.47;;;5.62;53.33
79413;BME280;68863;49.528;11.010;2024-03-08T00:59:04;98394.13;;;5.48;53.55
79413;BME280;68863;49.528;11.010;2024-03-08T01:00:05;98388.53;;;5.38;53.69
79413;BME280;68863;49.528;11.010;2024-03-08T01:01:09;98384.16;;;5.39;54.06
79413;BME280;68863;49.528;11.010;2024-03-08T01:02:10;98397.56;;;5.49;53.91
79413;BME280;68863;49.528;11.010;2024-03-08T01:03:10;98393.28;;;5.11;54.36
79413;BME280;68863;49.528;11.010;2024-03-08T01:04:11;98388.25;;;5.26;54.40
79413;BME280;68863;49.528;11.010;2024-03-08T01:05:11;98385.97;;;5.37;54.10
79413;BME280;68863;49.528;11.010;2024-03-08T01:06:12;98391.44;;;5.50;53.68
79413;BME280;68863;49.528;11.010;2024-03-08T01:07:12;98389.75;;;5.49;53.79
79413;BME280;68863;49.528;11.010;2024-03-08T01:08:13;98387.63;;;5.57;53.38
79413;BME280;68863;49.528;11.010;2024-03-08T01:09:13;98384.63;;;5.47;53.23
79413;BME280;68863;49.528;11.010;2024-03-08T01:10:13;98386.19;;;5.69;52.98
79413;BME280;68863;49.528;11.010;2024-03-08T01:11:14;98384.28;;;5.72;52.70
79413;BME280;68863;49.528;11.010;2024-03-08T01:12:15;98380.91;;;5.34;53.53
79413;BME280;68863;49.528;11.010;2024-03-08T01:13:15;98385.94;;;5.20;54.21
79413;BME280;68863;49.528;11.010;2024-03-08T01:14:16;98379.97;;;4.99;54.36
79413;BME280;68863;49.528;11.010;2024-03-08T01:15:16;98383.22;;;5.23;53.92
79413;BME280;68863;49.528;11.010;2024-03-08T01:16:17;98374.34;;;5.44;53.68
79413;BME280;68863;49.528;11.010;2024-03-08T01:17:17;98375.69;;;5.34;54.12
79413;BME280;68863;49.528;11.010;2024-03-08T01:18:18;98374.22;;;5.64;53.19
79413;BME280;68863;49.528;11.010;2024-03-08T01:19:19;98366.09;;;5.17;53.67
79413;BME280;68863;49.528;11.010;2024-03-08T01:20:20;98365.00;;;5.23;53.58
79413;BME280;68863;49.528;11.010;2024-03-08T01:21:21;98366.00;;;5.37;53.84
79413;BME280;68863;49.528;11.010;2024-03-08T01:22:22;98368.72;;;5.17;54.25
79413;BME280;68863;49.528;11.010;2024-03-08T01:23:22;98365.16;;;5.37;53.87
79413;BME280;68863;49.528;11.010;2024-03-08T01:24:23;98362.63;;;5.35;53.79
79413;BME280;68863;49.528;11.010;2024-03-08T01:25:23;98360.97;;;5.52;53.41
79413;BME280;68863;49.528;11.010;2024-03-08T01:26:24;98361.13;;;4.94;54.80
79413;BME280;68863;49.528;11.010;2024-03-08T01:27:24;98362.22;;;4.31;56.60
79413;BME280;68863;49.528;11.010;2024-03-08T01:28:25;98366.16;;;4.40;57.10
79413;BME280;68863;49.528;11.010;2024-03-08T01:29:26;98356.94;;;4.72;56.21
79413;BME280;68863;49.528;11.010;2024-03-08T01:30:27;98357.91;;;5.07;55.17
79413;BME280;68863;49.528;11.010;2024-03-08T01:31:29;98363.72;;;4.75;55.63
79413;BME280;68863;49.528;11.010;2024-03-08T01:32:30;98359.69;;;4.88;55.63
79413;BME280;68863;49.528;11.010;2024-03-08T01:33:30;98356.41;;;4.64;56.08
79413;BME280;68863;49.528;11.010;2024-03-08T01:34:31;98359.47;;;4.93;55.83
79413;BME280;68863;49.528;11.010;2024-03-08T01:35:33;98354.13;;;4.96;55.22
79413;BME280;68863;49.528;11.010;2024-03-08T01:36:34;98353.75;;;4.65;55.72
79413;BME280;68863;49.528;11.010;2024-03-08T01:37:37;98352.94;;;4.84;55.89
79413;BME280;68863;49.528;11.010;2024-03-08T01:38:38;98354.81;;;4.80;55.73
79413;BME280;68863;49.528;11.010;2024-03-08T01:39:38;98354.94;;;4.58;56.25
79413;BME280;68863;49.528;11.010;2024-03-08T01:40:39;98342.31;;;4.88;55.81
79413;BME280;68863;49.528;11.010;2024-03-08T01:41:41;98355.38;;;4.49;56.66
79413;BME280;68863;49.528;11.010;2024-03-08T01:42:41;98353.56;;;4.89;55.81
79413;BME280;68863;49.528;11.010;2024-03-08T01:43:41;98344.25;;;5.02;55.48
79413;BME280;68863;49.528;11.010;2024-03-08T01:44:42;98346.09;;;5.00;55.44
79413;BME280;68863;49.528;11.010;2024-03-08T01:45:44;98346.16;;;4.99;55.41
79413;BME280;68863;49.528;11.010;2024-03-08T01:46:45;98338.69;;;4.91;55.63
79413;BME280;68863;49.528;11.010;2024-03-08T01:47:45;98339.84;;;5.04;55.27
79413;BME280;68863;49.528;11.010;2024-03-08T01:48:48;98342.16;;;4.73;55.63
79413;BME280;68863;49.528;11.010;2024-03-08T01:49:50;98344.38;;;4.99;55.62
79413;BME280;68863;49.528;11.010;2024-03-08T01:50:53;98343.41;;;4.26;56.81
79413;BME280;68863;49.528;11.010;2024-03-08T01:51:55;98339.31;;;4.39;57.10
79413;BME280;68863;49.528;11.010;2024-03-08T01:52:56;98342.28;;;4.51;56.69
79413;BME280;68863;49.528;11.010;2024-03-08T01:54:02;98345.53;;;4.75;55.92
79413;BME280;68863;49.528;11.010;2024-03-08T01:55:04;98336.47;;;4.64;56.13
79413;BME280;68863;49.528;11.010;2024-03-08T01:56:07;98336.81;;;4.95;55.71
79413;BME280;68863;49.528;11.010;2024-03-08T01:57:09;98338.50;;;4.77;56.23
79413;BME280;68863;49.528;11.010;2024-03-08T01:58:10;98331.75;;;4.54;56.84
79413;BME280;68863;49.528;11.010;2024-03-08T01:59:12;98327.19;;;4.97;55.92
79413;BME280;68863;49.528;11.010;2024-03-08T02:00:14;98331.78;;;4.73;55.80
79413;BME280;68863;49.528;11.010;2024-03-08T02:01:16;98336.66;;;4.22;56.82
79413;BME280;68863;49.528;11.010;2024-03-08T02:02:20;98327.16;;;4.40;57.11
79413;BME280;68863;49.528;11.010;2024-03-08T02:03:21;98328.72;;;4.44;56.87
79413;BME280;68863;49.528;11.010;2024-03-08T02:04:22;98334.84;;;4.62;56.64
79413;BME280;68863;49.528;11.010;2024-03-08T02:05:25;98328.81;;;4.42;57.15
79413;BME280;68863;49.528;11.010;2024-03-08T02:06:25;98325.78;;;4.71;56.53
79413;BME280;68863;49.528;11.010;2024-03-08T02:07:26;98320.75;;;4.49;56.98
79413;BME280;68863;49.528;11.010;2024-03-08T02:08:26;98318.75;;;4.91;55.79
79413;BME280;68863;49.528;11.010;2024-03-08T02:09:27;98332.66;;;4.90;55.14
79413;BME280;68863;49.528;11.010;2024-03-08T02:10:28;98326.00;;;4.66;55.83
79413;BME280;68863;49.528;11.010;2024-03-08T02:11:30;98322.69;;;4.81;55.49
79413;BME280;68863;49.528;11.010;2024-03-08T02:12:30;98316.22;;;4.90;55.50
79413;BME280;68863;49.528;11.010;2024-03-08T02:13:31;98317.25;;;5.05;55.22
79413;BME280;68863;49.528;11.010;2024-03-08T02:14:31;98319.88;;;5.22;54.55
79413;BME280;68863;49.528;11.010;2024-03-08T02:15:53;98318.06;;;4.88;55.44
79413;BME280;68863;49.528;11.010;2024-03-08T02:16:54;98315.34;;;5.08;55.00
79413;BME280;68863;49.528;11.010;2024-03-08T02:17:57;98314.88;;;4.81;55.39
79413;BME280;68863;49.528;11.010;2024-03-08T02:18:58;98318.13;;;4.67;55.95
79413;BME280;68863;49.528;11.010;2024-03-08T02:20:00;98314.69;;;4.86;55.57
79413;BME280;68863;49.528;11.010;2024-03-08T02:21:06;98312.84;;;4.88;55.28
79413;BME280;68863;49.528;11.010;2024-03-08T02:22:07;98311.69;;;5.12;54.98
79413;BME280;68863;49.528;11.010;2024-03-08T02:23:09;98315.72;;;5.01;55.09
79413;BME280;68863;49.528;11.010;2024-03-08T02:24:09;98312.00;;;5.24;54.35
79413;BME280;68863;49.528;11.010;2024-03-08T02:25:10;98315.34;;;5.08;54.80
79413;BME280;68863;49.528;11.010;2024-03-08T02:26:11;98315.94;;;4.58;55.72
79413;BME280;68863;49.528;11.010;2024-03-08T02:27:11;98306.97;;;5.02;55.05
79413;BME280;68863;49.528;11.010;2024-03-08T02:28:13;98309.19;;;4.92;55.36
79413;BME280;68863;49.528;11.010;2024-03-08T02:29:14;98309.56;;;5.21;54.72
79413;BME280;68863;49.528;11.010;2024-03-08T02:30:15;98302.94;;;5.13;54.47
79413;BME280;68863;49.528;11.010;2024-03-08T02:31:17;98309.69;;;5.18;54.01
79413;BME280;68863;49.528;11.010;2024-03-08T02:32:18;98309.19;;;5.28;53.96
79413;BME280;68863;49.528;11.010;2024-03-08T02:33:19;98302.72;;;5.01;54.83
79413;BME280;68863;49.528;11.010;2024-03-08T02:34:19;98295.69;;;5.20;54.10
79413;BME280;68863;49.528;11.010;2024-03-08T02:35:20;98300.22;;;5.16;54.01
79413;BME280;68863;49.528;11.010;2024-03-08T02:36:21;98297.13;;;5.08;54.31
79413;BME280;68863;49.528;11.010;2024-03-08T02:37:21;98298.56;;;4.97;54.63
79413;BME280;68863;49.528;11.010;2024-03-08T02:38:22;98290.81;;;4.95;55.03
79413;BME280;68863;49.528;11.010;2024-03-08T02:39:24;98290.88;;;5.12;54.61
79413;BME280;68863;49.528;11.010;2024-03-08T02:40:24;98289.09;;;4.77;55.31
79413;BME280;68863;49.528;11.010;2024-03-08T02:41:24;98295.50;;;4.88;55.00
79413;BME280;68863;49.528;11.010;2024-03-08T02:42:25;98293.53;;;5.11;54.66
79413;BME280;68863;49.528;11.010;2024-03-08T02:43:25;98289.72;;;4.82;54.94
79413;BME280;68863;49.528;11.010;2024-03-08T02:44:25;98294.47;;;4.91;54.83
79413;BME280;68863;49.528;11.010;2024-03-08T02:45:26;98283.53;;;5.03;54.50
79413;BME280;68863;49.528;11.010;2024-03-08T02:46:26;98288.19;;;4.78;55.27
79413;BME280;68863;49.528;11.010;2024-03-08T02:47:26;98287.69;;;4.70;55.23
79413;BME280;68863;49.528;11.010;2024-03-08T02:48:27;98295.72;;;4.65;55.45
79413;BME280;68863;49.528;11.010;2024-03-08T02:49:27;98291.44;;;4.45;55.82
79413;BME280;68863;49.528;11.010;2024-03-08T02:50:27;98294.22;;;4.78;55.40
79413;BME280;68863;49.528;11.010;2024-03-08T02:51:29;98290.44;;;4.85;54.98
79413;BME280;68863;49.528;11.010;2024-03-08T02:52:29;98287.69;;;4.88;55.24
79413;BME280;68863;49.528;11.010;2024-03-08T02:53:29;98284.72;;;4.96;54.94
79413;BME280;68863;49.528;11.010;2024-03-08T02:54:30;98285.13;;;4.87;54.82
79413;BME280;68863;49.528;11.010;2024-03-08T02:55:30;98290.63;;;5.00;54.58
79413;BME280;68863;49.528;11.010;2024-03-08T02:56:30;98280.13;;;5.01;54.57
79413;BME280;68863;49.528;11.010;2024-03-08T02:57:34;98285.53;;;5.15;54.20
79413;BME280;68863;49.528;11.010;2024-03-08T02:58:35;98286.06;;;4.86;54.88
79413;BME280;68863;49.528;11.010;2024-03-08T02:59:35;98287.66;;;4.33;56.42
79413;BME280;68863;49.528;11.010;2024-03-08T03:00:36;98288.31;;;4.56;55.61
79413;BME280;68863;49.528;11.010;2024-03-08T03:01:36;98289.03;;;4.59;55.37
79413;BME280;68863;49.528;11.010;2024-03-08T03:02:38;98290.16;;;4.35;56.11
79413;BME280;68863;49.528;11.010;2024-03-08T03:03:38;98289.34;;;4.53;56.23
79413;BME280;68863;49.528;11.010;2024-03-08T03:04:40;98291.75;;;4.56;56.29
79413;BME280;68863;49.528;11.010;2024-03-08T03:05:40;98293.69;;;4.53;56.35
79413;BME280;68863;49.528;11.010;2024-03-08T03:06:44;98284.66;;;4.79;54.98
79413;BME280;68863;49.528;11.010;2024-03-08T03:07:44;98284.72;;;4.96;54.48
79413;BME280;68863;49.528;11.010;2024-03-08T03:08:45;98285.47;;;4.43;55.74
79413;BME280;68863;49.528;11.010;2024-03-08T03:09:45;98293.59;;;4.54;55.93
79413;BME280;68863;49.528;11.010;2024-03-08T03:10:46;98285.38;;;4.45;55.98
79413;BME280;68863;49.528;11.010;2024-03-08T03:11:46;98280.34;;;4.60;55.50
79413;BME280;68863;49.528;11.010;2024-03-08T03:12:46;98281.31;;;4.77;55.50
79413;BME280;68863;49.528;11.010;2024-03-08T03:13:48;98277.34;;;4.87;54.82
79413;BME280;68863;49.528;11.010;2024-03-08T03:14:48;98279.75;;;4.91;54.39
79413;BME280;68863;49.528;11.010;2024-03-08T03:15:49;98282.34;;;4.91;54.40
79413;BME280;68863;49.528;11.010;2024-03-08T03:16:49;98272.09;;;4.88;54.74
79413;BME280;68863;49.528;11.010;2024-03-08T03:17:50;98275.25;;;4.76;54.70
79413;BME280;68863;49.528;11.010;2024-03-08T03:18:51;98277.78;;;4.40;56.01
79413;BME280;68863;49.528;11.010;2024-03-08T03:19:52;98282.66;;;4.48;55.81
79413;BME280;68863;49.528;11.010;2024-03-08T03:20:52;98282.06;;;4.03;56.84
79413;BME280;68863;49.528;11.010;2024-03-08T03:21:52;98278.34;;;4.28;56.67
79413;BME280;68863;49.528;11.010;2024-03-08T03:22:52;98278.59;;;4.61;55.74
79413;BME280;68863;49.528;11.010;2024-03-08T03:23:53;98279.63;;;4.19;56.42
79413;BME280;68863;49.528;11.010;2024-03-08T03:24:53;98275.97;;;4.42;56.10
79413;BME280;68863;49.528;11.010;2024-03-08T03:25:53;98277.66;;;4.43;55.56
79413;BME280;68863;49.528;11.010;2024-03-08T03:26:57;98277.19;;;4.54;55.50
79413;BME280;68863;49.528;11.010;2024-03-08T03:27:57;98269.06;;;4.79;54.79
79413;BME280;68863;49.528;11.010;2024-03-08T03:28:57;98272.34;;;4.82;54.65
79413;BME280;68863;49.528;11.010;2024-03-08T03:30:00;98276.50;;;4.86;54.91
79413;BME280;68863;49.528;11.010;2024-03-08T03:31:20;98269.75;;;4.82;54.63
79413;BME280;68863;49.528;11.010;2024-03-08T03:32:24;98268.66;;;4.69;54.48
79413;BME280;68863;49.528;11.010;2024-03-08T03:33:24;98276.38;;;4.52;55.89
79413;BME280;68863;49.528;11.010;2024-03-08T03:34:25;98270.34;;;4.51;55.98
79413;BME280;68863;49.528;11.010;2024-03-08T03:35:25;98275.53;;;4.51;55.75
79413;BME280;68863;49.528;11.010;2024-03-08T03:36:25;98275.53;;;4.32;56.03
79413;BME280;68863;49.528;11.010;2024-03-08T03:37:25;98279.50;;;4.41;56.30
79413;BME280;68863;49.528;11.010;2024-03-08T03:38:26;98275.19;;;4.40;56.21
79413;BME280;68863;49.528;11.010;2024-03-08T03:39:28;98273.44;;;4.59;55.83
79413;BME280;68863;49.528;11.010;2024-03-08T03:40:38;98278.22;;;4.31;56.51
79413;BME280;68863;49.528;11.010;2024-03-08T03:41:39;98285.53;;;4.23;57.28
79413;BME280;68863;49.528;11.010;2024-03-08T03:42:39;98278.78;;;4.18;56.45
79413;BME280;68863;49.528;11.010;2024-03-08T03:43:40;98277.03;;;4.19;56.58
79413;BME280;68863;49.528;11.010;2024-03-08T03:44:40;98280.81;;;4.31;56.29
79413;BME280;68863;49.528;11.010;2024-03-08T03:45:40;98279.91;;;4.32;56.30
79413;BME280;68863;49.528;11.010;2024-03-08T03:46:42;98273.03;;;4.31;56.13
79413;BME280;68863;49.528;11.010;2024-03-08T03:47:44;98273.28;;;4.06;56.62
79413;BME280;68863;49.528;11.010;2024-03-08T03:48:44;98270.91;;;4.20;56.65
79413;BME280;68863;49.528;11.010;2024-03-08T03:49:44;98273.72;;;4.15;56.24
79413;BME280;68863;49.528;11.010;2024-03-08T03:50:45;98274.00;;;4.47;55.84
79413;BME280;68863;49.528;11.010;2024-03-08T03:51:45;98269.72;;;4.27;56.03
79413;BME280;68863;49.528;11.010;2024-03-08T03:52:47;98270.50;;;4.29;55.97
79413;BME280;68863;49.528;11.010;2024-03-08T03:53:47;98260.97;;;4.49;55.49
79413;BME280;68863;49.528;11.010;2024-03-08T03:54:48;98267.75;;;4.51;55.25
79413;BME280;68863;49.528;11.010;2024-03-08T03:55:49;98269.81;;;4.26;55.92
79413;BME280;68863;49.528;11.010;2024-03-08T03:56:50;98260.91;;;3.92;56.81
79413;BME280;68863;49.528;11.010;2024-03-08T03:57:52;98259.81;;;4.16;56.53
79413;BME280;68863;49.528;11.010;2024-03-08T03:58:53;98261.44;;;4.19;56.13
79413;BME280;68863;49.528;11.010;2024-03-08T03:59:53;98257.84;;;4.40;56.04
79413;BME280;68863;49.528;11.010;2024-03-08T04:00:54;98266.56;;;4.39;55.79
79413;BME280;68863;49.528;11.010;2024-03-08T04:01:54;98261.34;;;4.39;55.75
79413;BME280;68863;49.528;11.010;2024-03-08T04:02:54;98263.91;;;4.41;55.32
79413;BME280;68863;49.528;11.010;2024-03-08T04:03:58;98263.50;;;4.67;54.99
79413;BME280;68863;49.528;11.010;2024-03-08T04:04:59;98258.03;;;4.74;54.68
79413;BME280;68863;49.528;11.010;2024-03-08T04:05:59;98250.09;;;4.77;54.69
79413;BME280;68863;49.528;11.010;2024-03-08T04:06:59;98267.53;;;4.75;54.54
79413;BME280;68863;49.528;11.010;2024-03-08T04:08:00;98259.59;;;4.59;55.46
79413;BME280;68863;49.528;11.010;2024-03-08T04:09:00;98259.25;;;4.48;55.24
79413;BME280;68863;49.528;11.010;2024-03-08T04:10:02;98258.47;;;4.64;54.79
79413;BME280;68863;49.528;11.010;2024-03-08T04:11:02;98267.56;;;4.37;55.43
79413;BME280;68863;49.528;11.010;2024-03-08T04:12:02;98257.63;;;4.64;54.98
79413;BME280;68863;49.528;11.010;2024-03-08T04:13:03;98256.56;;;4.68;55.06
79413;BME280;68863;49.528;11.010;2024-03-08T04:14:04;98258.31;;;4.67;54.83
79413;BME280;68863;49.528;11.010;2024-03-08T04:15:05;98263.25;;;4.36;55.66
79413;BME280;68863;49.528;11.010;2024-03-08T04:16:10;98259.31;;;4.65;54.78
79413;BME280;68863;49.528;11.010;2024-03-08T04:17:11;98261.94;;;4.46;54.79
79413;BME280;68863;49.528;11.010;2024-03-08T04:18:14;98254.75;;;4.32;55.66
79413;BME280;68863;49.528;11.010;2024-03-08T04:19:14;98260.88;;;4.31;55.79
79413;BME280;68863;49.528;11.010;2024-03-08T04:20:15;98247.22;;;4.64;55.25
79413;BME280;68863;49.528;11.010;2024-03-08T04:21:17;98247.88;;;4.50;55.32
79413;BME280;68863;49.528;11.010;2024-03-08T04:22:19;98251.09;;;4.36;55.98
79413;BME280;68863;49.528;11.010;2024-03-08T04:23:19;98248.72;;;4.32;56.01
79413;BME280;68863;49.528;11.010;2024-03-08T04:24:20;98246.19;;;4.30;55.71
79413;BME280;68863;49.528;11.010;2024-03-08T04:25:20;98241.22;;;4.07;57.01
79413;BME280;68863;49.528;11.010;2024-03-08T04:26:21;98249.69;;;4.10;56.63
79413;BME280;68863;49.528;11.010;2024-03-08T04:27:23;98249.28;;;4.20;56.69
79413;BME280;68863;49.528;11.010;2024-03-08T04:28:23;98249.53;;;4.13;57.00
79413;BME280;68863;49.528;11.010;2024-03-08T04:29:24;98240.75;;;3.97;56.72
79413;BME280;68863;49.528;11.010;2024-03-08T04:30:24;98241.34;;;4.04;57.02
79413;BME280;68863;49.528;11.010;2024-03-08T04:31:24;98242.97;;;3.86;57.61
79413;BME280;68863;49.528;11.010;2024-03-08T04:32:26;98242.16;;;4.04;57.51
79413;BME280;68863;49.528;11.010;2024-03-08T04:33:29;98233.59;;;4.40;56.42
79413;BME280;68863;49.528;11.010;2024-03-08T04:34:30;98234.19;;;4.28;56.45
79413;BME280;68863;49.528;11.010;2024-03-08T04:35:30;98234.19;;;4.28;56.79
79413;BME280;68863;49.528;11.010;2024-03-08T04:36:31;98236.66;;;4.31;56.55
79413;BME280;68863;49.528;11.010;2024-03-08T04:37:31;98232.19;;;4.33;56.49
79413;BME280;68863;49.528;11.010;2024-03-08T04:38:31;98229.06;;;4.07;56.80
79413;BME280;68863;49.528;11.010;2024-03-08T04:39:32;98227.16;;;4.30;56.53
79413;BME280;68863;49.528;11.010;2024-03-08T04:40:32;98223.66;;;4.31;56.31
79413;BME280;68863;49.528;11.010;2024-03-08T04:41:32;98225.53;;;4.27;56.86
79413;BME280;68863;49.528;11.010;2024-03-08T04:42:34;98227.22;;;4.28;56.57
79413;BME280;68863;49.528;11.010;2024-03-08T04:43:37;98230.41;;;3.77;57.44
79413;BME280;68863;49.528;11.010;2024-03-08T04:44:37;98227.56;;;3.83;57.62
79413;BME280;68863;49.528;11.010;2024-03-08T04:45:38;98230.53;;;3.74;58.29
79413;BME280;68863;49.528;11.010;2024-03-08T04:46:39;98228.44;;;3.82;58.01
79413;BME280;68863;49.528;11.010;2024-03-08T04:47:39;98226.53;;;4.06;57.50
79413;BME280;68863;49.528;11.010;2024-03-08T04:48:40;98232.59;;;3.86;57.34
79413;BME280;68863;49.528;11.010;2024-03-08T04:49:42;98230.78;;;3.88;57.66
79413;BME280;68863;49.528;11.010;2024-03-08T04:50:42;98232.22;;;4.14;57.04
79413;BME280;68863;49.528;11.010;2024-03-08T04:51:44;98224.00;;;4.42;56.65
79413;BME280;68863;49.528;11.010;2024-03-08T04:52:45;98224.78;;;4.25;56.85
79413;BME280;68863;49.528;11.010;2024-03-08T04:53:45;98230.56;;;3.92;57.61
79413;BME280;68863;49.528;11.010;2024-03-08T04:54:45;98226.66;;;4.03;57.30
79413;BME280;68863;49.528;11.010;2024-03-08T04:55:46;98222.50;;;4.36;56.71
79413;BME280;68863;49.528;11.010;2024-03-08T04:56:46;98225.97;;;3.99;57.33
79413;BME280;68863;49.528;11.010;2024-03-08T04:57:49;98225.28;;;4.14;57.26
79413;BME280;68863;49.528;11.010;2024-03-08T04:58:49;98225.63;;;4.07;57.59
79413;BME280;68863;49.528;11.010;2024-03-08T04:59:50;98229.53;;;3.97;57.75
79413;BME280;68863;49.528;11.010;2024-03-08T05:00:50;98230.03;;;4.05;57.26
79413;BME280;68863;49.528;11.010;2024-03-08T05:01:50;98232.28;;;4.12;57.26
79413;BME280;68863;49.528;11.010;2024-03-08T05:02:51;98223.75;;;4.29;57.08
79413;BME280;68863;49.528;11.010;2024-03-08T05:03:53;98221.31;;;4.25;56.86
79413;BME280;68863;49.528;11.010;2024-03-08T05:04:55;98226.81;;;4.18;57.00
79413;BME280;68863;49.528;11.010;2024-03-08T05:05:55;98226.81;;;4.00;57.58
79413;BME280;68863;49.528;11.010;2024-03-08T05:06:56;98227.31;;;4.27;56.81
79413;BME280;68863;49.528;11.010;2024-03-08T05:07:57;98221.50;;;4.22;56.99
79413;BME280;68863;49.528;11.010;2024-03-08T05:08:57;98228.75;;;4.13;57.02
79413;BME280;68863;49.528;11.010;2024-03-08T05:09:58;98224.72;;;4.27;57.02
79413;BME280;68863;49.528;11.010;2024-03-08T05:10:59;98223.38;;;4.37;56.74
79413;BME280;68863;49.528;11.010;2024-03-08T05:12:00;98226.66;;;4.03;57.50
79413;BME280;68863;49.528;11.010;2024-03-08T05:13:01;98223.16;;;4.04;57.05
79413;BME280;68863;49.528;11.010;2024-03-08T05:14:02;98227.22;;;4.47;56.46
79413;BME280;68863;49.528;11.010;2024-03-08T05:15:02;98225.06;;;4.38;56.14
79413;BME280;68863;49.528;11.010;2024-03-08T05:16:03;98219.66;;;4.24;56.91
79413;BME280;68863;49.528;11.010;2024-03-08T05:17:03;98217.84;;;4.26;56.62
79413;BME280;68863;49.528;11.010;2024-03-08T05:18:03;98221.84;;;4.14;56.62
79413;BME280;68863;49.528;11.010;2024-03-08T05:19:08;98215.59;;;4.37;56.87
79413;BME280;68863;49.528;11.010;2024-03-08T05:20:16;98215.78;;;4.32;56.74
79413;BME280;68863;49.528;11.010;2024-03-08T05:21:17;98215.28;;;4.05;57.16
79413;BME280;68863;49.528;11.010;2024-03-08T05:22:23;98217.13;;;4.03;57.29
79413;BME280;68863;49.528;11.010;2024-03-08T05:23:24;98211.94;;;4.22;57.03